Aérodrome :
LOGIN :

S'inscrire | Disclaimer

   EN    FR    IT 

 










Légende :    VFR   VFR Marginal   IFR   IFR Intensif   IFR Très Intensif
Visi : 
Plafond : 
>= 8 km
>= 3000ft
5 à 8 km
1000 à 3000 ft
1500m à 5 km
500 à 1000 ft
800 à 1500m
200 à 500 ft
< 800m
< 200 ft
Symboles :   Orages  Brouillard  Fortes neiges  Fortes précipitations  Vent > 20 kt
SIGMETs :   Divers  Orages  Givrage  Turbulence  Onde Orograph.  Cendres Volcan.







- Altitude de l'aérodrome : 10 ft
- Code IATA : AAL


EKYT - Aalborg

DERNIER METAR :
  • 220820Z AUTO 23012KT 9999 -RA FEW016/// SCT034/// BKN050/// 16/14 Q1018

METARs EXPIRÉS :
  • 220750Z AUTO 22009KT 9999 -SHRA FEW018/// BKN050/// BKN075/// 16/14 Q1018
  • 220720Z AUTO 22009KT 9999 -SHRA FEW040/// BKN070/// BKN085/// 16/14 Q1018
  • 220650Z AUTO 22008KT 9999 SCT075/// BKN095/// BKN130/// 16/14 Q1018
  • 220620Z AUTO 23010KT 9999 FEW090/// BKN110/// 15/14 Q1018
  • 220550Z AUTO 22008KT 9999 BKN100/// BKN130/// 15/14 Q1018

TAF TAF EKYT
Valide du 22 à 06h jusqu'au 23 à 06h UTC


220459Z 2206/2306 20010KT 9999 BKN100
TEMPO 2209/2216 18015KT 4000 RA BKN012
TEMPO 2216/2222 2500 -RADZ BR BKN004
BECMG 2219/2222 24010KT
TEMPO 2222/2306 3000 BR BKN006
Pas de NOTAMs connus pour ce terrain.



MET'MAP, la Météo Aéronautique d'un coup d'oeil ! - Copyright ORBIFLY Décembre 2007 - Disclaimer

ORBIFLY MET'MAP TEAM :

Programmation & Développement : Alexandra Zaïnal
Conception & Développement : Baudouin d'Aumeries
Co-Programmation & Développement : Marc-Olivier Méhu
Soutien technique & logistique : Manuel Goepfert

Contact : metmap@orbifly.com




SOURCES & CREDITS :

   NOAA